Roff, Oklahoma
Current Conditions -  °F | °C
As of 11:35 AM on Tuesday 21 Oct 2014 (Local Time) from KADH Reporting Station
Clear Clear  
Wind Chill: 75°   Ceiling: Unl
Heat Index: 75°   Visibility: 10mi
Dew Point: 63°   Wind: 3mph
Humidity: 65%   Direction: 230°SW
Pressure: 30.12"   Gusts: NA
Location:  34.63°N, 96.84°W
Report Text: KADH 211635Z AUTO 23003KT 10SM CLR 24/17 A3012 RMK AO2
Loading
Personal Weather Stations






























Interactive Weather Map
Tropical Storm Tracking
New forecast layout! Learn more

10-Day Weather Forecast

Advertisements
Track Severe Weather on mobile